sensor_id;sensor_type;location;lat;lon;timestamp;P1;durP1;ratioP1;P2;durP2;ratioP2
3757;SDS011;1894;51.038;13.692;2022-09-17T00:01:26;2.57;;;1.43;;
3757;SDS011;1894;51.038;13.692;2022-09-17T00:03:57;4.83;;;1.00;;
3757;SDS011;1894;51.038;13.692;2022-09-17T00:06:30;4.43;;;1.10;;
3757;SDS011;1894;51.038;13.692;2022-09-17T00:09:00;3.63;;;1.10;;
3757;SDS011;1894;51.038;13.692;2022-09-17T00:11:31;6.47;;;1.20;;
3757;SDS011;1894;51.038;13.692;2022-09-17T00:14:02;2.50;;;1.00;;
3757;SDS011;1894;51.038;13.692;2022-09-17T00:16:32;6.33;;;1.00;;
3757;SDS011;1894;51.038;13.692;2022-09-17T00:19:02;8.93;;;1.50;;
3757;SDS011;1894;51.038;13.692;2022-09-17T00:21:31;5.40;;;1.00;;
3757;SDS011;1894;51.038;13.692;2022-09-17T00:23:59;4.20;;;1.20;;
3757;SDS011;1894;51.038;13.692;2022-09-17T00:26:29;4.80;;;1.37;;
3757;SDS011;1894;51.038;13.692;2022-09-17T00:28:58;3.37;;;1.30;;
3757;SDS011;1894;51.038;13.692;2022-09-17T00:31:26;2.20;;;0.90;;
3757;SDS011;1894;51.038;13.692;2022-09-17T00:33:57;8.97;;;1.17;;
3757;SDS011;1894;51.038;13.692;2022-09-17T00:36:25;8.10;;;1.33;;
3757;SDS011;1894;51.038;13.692;2022-09-17T00:38:53;4.43;;;1.20;;
3757;SDS011;1894;51.038;13.692;2022-09-17T00:41:26;5.10;;;1.23;;
3757;SDS011;1894;51.038;13.692;2022-09-17T00:44:00;2.50;;;1.00;;
3757;SDS011;1894;51.038;13.692;2022-09-17T00:47:19;3.37;;;1.20;;
3757;SDS011;1894;51.038;13.692;2022-09-17T00:49:54;3.20;;;0.93;;
3757;SDS011;1894;51.038;13.692;2022-09-17T00:53:06;3.13;;;1.00;;
3757;SDS011;1894;51.038;13.692;2022-09-17T00:55:45;5.93;;;1.10;;
3757;SDS011;1894;51.038;13.692;2022-09-17T00:58:38;4.90;;;0.90;;
3757;SDS011;1894;51.038;13.692;2022-09-17T01:01:07;5.93;;;1.13;;
3757;SDS011;1894;51.038;13.692;2022-09-17T01:03:34;5.50;;;1.53;;
3757;SDS011;1894;51.038;13.692;2022-09-17T01:06:13;9.60;;;1.33;;
3757;SDS011;1894;51.038;13.692;2022-09-17T01:12:58;1.63;;;0.97;;
3757;SDS011;1894;51.038;13.692;2022-09-17T01:18:58;6.60;;;1.33;;
3757;SDS011;1894;51.038;13.692;2022-09-17T01:22:02;9.40;;;0.80;;
3757;SDS011;1894;51.038;13.692;2022-09-17T01:27:58;4.67;;;1.10;;
3757;SDS011;1894;51.038;13.692;2022-09-17T01:36:19;4.20;;;1.10;;
3757;SDS011;1894;51.038;13.692;2022-09-17T01:41:50;9.00;;;1.30;;
3757;SDS011;1894;51.038;13.692;2022-09-17T01:47:53;4.60;;;0.97;;
3757;SDS011;1894;51.038;13.692;2022-09-17T01:50:29;3.70;;;0.80;;
3757;SDS011;1894;51.038;13.692;2022-09-17T01:53:04;3.77;;;1.10;;
3757;SDS011;1894;51.038;13.692;2022-09-17T01:55:34;2.50;;;1.63;;
3757;SDS011;1894;51.038;13.692;2022-09-17T01:58:07;6.00;;;1.00;;
3757;SDS011;1894;51.038;13.692;2022-09-17T02:00:43;3.37;;;0.90;;
3757;SDS011;1894;51.038;13.692;2022-09-17T02:03:21;8.13;;;1.50;;
3757;SDS011;1894;51.038;13.692;2022-09-17T02:06:04;3.93;;;0.83;;
3757;SDS011;1894;51.038;13.692;2022-09-17T02:08:46;7.93;;;1.30;;
3757;SDS011;1894;51.038;13.692;2022-09-17T02:11:20;5.73;;;1.30;;
3757;SDS011;1894;51.038;13.692;2022-09-17T02:16:25;4.10;;;1.00;;
3757;SDS011;1894;51.038;13.692;2022-09-17T02:18:57;10.80;;;1.27;;
3757;SDS011;1894;51.038;13.692;2022-09-17T02:24:16;4.60;;;0.97;;
3757;SDS011;1894;51.038;13.692;2022-09-17T02:26:57;3.13;;;0.73;;
3757;SDS011;1894;51.038;13.692;2022-09-17T02:29:32;4.27;;;1.17;;
3757;SDS011;1894;51.038;13.692;2022-09-17T02:32:07;8.57;;;1.20;;
3757;SDS011;1894;51.038;13.692;2022-09-17T02:34:35;3.37;;;0.80;;
3757;SDS011;1894;51.038;13.692;2022-09-17T02:37:03;5.90;;;1.27;;
3757;SDS011;1894;51.038;13.692;2022-09-17T02:39:32;3.63;;;1.10;;
3757;SDS011;1894;51.038;13.692;2022-09-17T02:53:26;4.50;;;0.83;;
3757;SDS011;1894;51.038;13.692;2022-09-17T02:59:01;2.73;;;0.80;;
3757;SDS011;1894;51.038;13.692;2022-09-17T03:04:24;2.20;;;0.70;;
3757;SDS011;1894;51.038;13.692;2022-09-17T03:06:54;2.87;;;1.20;;
3757;SDS011;1894;51.038;13.692;2022-09-17T03:09:22;5.60;;;0.90;;
3757;SDS011;1894;51.038;13.692;2022-09-17T03:11:49;5.60;;;1.30;;
3757;SDS011;1894;51.038;13.692;2022-09-17T03:14:16;1.77;;;1.13;;
3757;SDS011;1894;51.038;13.692;2022-09-17T03:16:46;5.27;;;0.90;;
3757;SDS011;1894;51.038;13.692;2022-09-17T03:19:13;5.80;;;1.00;;
3757;SDS011;1894;51.038;13.692;2022-09-17T03:21:40;3.10;;;1.07;;
3757;SDS011;1894;51.038;13.692;2022-09-17T03:24:07;1.47;;;0.80;;
3757;SDS011;1894;51.038;13.692;2022-09-17T03:26:37;11.77;;;2.70;;
3757;SDS011;1894;51.038;13.692;2022-09-17T03:29:04;2.70;;;0.90;;
3757;SDS011;1894;51.038;13.692;2022-09-17T03:31:31;5.87;;;1.10;;
3757;SDS011;1894;51.038;13.692;2022-09-17T03:33:59;4.40;;;1.30;;
3757;SDS011;1894;51.038;13.692;2022-09-17T03:36:26;3.67;;;1.00;;
3757;SDS011;1894;51.038;13.692;2022-09-17T03:38:56;8.30;;;1.10;;
3757;SDS011;1894;51.038;13.692;2022-09-17T03:41:24;7.70;;;0.90;;
3757;SDS011;1894;51.038;13.692;2022-09-17T03:43:52;1.30;;;0.70;;
3757;SDS011;1894;51.038;13.692;2022-09-17T03:46:19;8.80;;;1.07;;
3757;SDS011;1894;51.038;13.692;2022-09-17T03:48:47;2.90;;;0.80;;
3757;SDS011;1894;51.038;13.692;2022-09-17T03:51:14;3.57;;;1.00;;
3757;SDS011;1894;51.038;13.692;2022-09-17T03:53:41;6.13;;;1.20;;
3757;SDS011;1894;51.038;13.692;2022-09-17T03:56:08;8.43;;;2.00;;
3757;SDS011;1894;51.038;13.692;2022-09-17T03:58:35;13.33;;;1.30;;
3757;SDS011;1894;51.038;13.692;2022-09-17T04:01:02;4.60;;;1.17;;
3757;SDS011;1894;51.038;13.692;2022-09-17T04:03:30;5.33;;;1.47;;
3757;SDS011;1894;51.038;13.692;2022-09-17T04:05:58;4.40;;;1.50;;
3757;SDS011;1894;51.038;13.692;2022-09-17T04:08:25;1.90;;;1.10;;
3757;SDS011;1894;51.038;13.692;2022-09-17T04:10:52;4.23;;;1.10;;
3757;SDS011;1894;51.038;13.692;2022-09-17T04:13:19;7.63;;;1.77;;
3757;SDS011;1894;51.038;13.692;2022-09-17T04:15:47;5.60;;;1.10;;
3757;SDS011;1894;51.038;13.692;2022-09-17T04:18:14;6.43;;;1.43;;
3757;SDS011;1894;51.038;13.692;2022-09-17T04:20:41;6.33;;;1.40;;
3757;SDS011;1894;51.038;13.692;2022-09-17T04:23:10;3.97;;;0.97;;
3757;SDS011;1894;51.038;13.692;2022-09-17T04:25:37;2.80;;;1.33;;
3757;SDS011;1894;51.038;13.692;2022-09-17T04:28:05;5.37;;;1.20;;
3757;SDS011;1894;51.038;13.692;2022-09-17T04:30:32;3.70;;;1.17;;
3757;SDS011;1894;51.038;13.692;2022-09-17T04:33:00;5.87;;;1.30;;
3757;SDS011;1894;51.038;13.692;2022-09-17T04:35:27;7.13;;;1.37;;
3757;SDS011;1894;51.038;13.692;2022-09-17T04:37:54;8.40;;;1.60;;
3757;SDS011;1894;51.038;13.692;2022-09-17T04:40:24;3.70;;;1.40;;
3757;SDS011;1894;51.038;13.692;2022-09-17T04:42:53;4.57;;;1.43;;
3757;SDS011;1894;51.038;13.692;2022-09-17T04:45:22;2.43;;;1.60;;
3757;SDS011;1894;51.038;13.692;2022-09-17T04:47:49;6.27;;;1.40;;
3757;SDS011;1894;51.038;13.692;2022-09-17T04:50:17;5.73;;;1.43;;
3757;SDS011;1894;51.038;13.692;2022-09-17T04:52:45;2.80;;;1.03;;
3757;SDS011;1894;51.038;13.692;2022-09-17T04:55:13;3.20;;;1.30;;
3757;SDS011;1894;51.038;13.692;2022-09-17T04:57:48;4.00;;;1.20;;
3757;SDS011;1894;51.038;13.692;2022-09-17T05:00:18;3.33;;;1.57;;
3757;SDS011;1894;51.038;13.692;2022-09-17T05:02:49;1.80;;;1.30;;
3757;SDS011;1894;51.038;13.692;2022-09-17T05:05:19;7.33;;;3.27;;
3757;SDS011;1894;51.038;13.692;2022-09-17T05:07:46;3.70;;;1.67;;
3757;SDS011;1894;51.038;13.692;2022-09-17T05:10:15;3.90;;;1.20;;
3757;SDS011;1894;51.038;13.692;2022-09-17T05:12:50;2.70;;;1.20;;
3757;SDS011;1894;51.038;13.692;2022-09-17T05:15:22;3.20;;;1.57;;
3757;SDS011;1894;51.038;13.692;2022-09-17T05:17:51;10.13;;;1.73;;
3757;SDS011;1894;51.038;13.692;2022-09-17T05:20:18;5.20;;;1.67;;
3757;SDS011;1894;51.038;13.692;2022-09-17T05:22:49;6.10;;;1.93;;
3757;SDS011;1894;51.038;13.692;2022-09-17T05:25:18;4.10;;;1.50;;
3757;SDS011;1894;51.038;13.692;2022-09-17T05:27:50;10.13;;;2.00;;
3757;SDS011;1894;51.038;13.692;2022-09-17T05:30:19;1.73;;;1.40;;
3757;SDS011;1894;51.038;13.692;2022-09-17T05:32:46;5.70;;;1.60;;
3757;SDS011;1894;51.038;13.692;2022-09-17T05:35:14;3.57;;;1.90;;
3757;SDS011;1894;51.038;13.692;2022-09-17T05:37:41;3.03;;;1.50;;
3757;SDS011;1894;51.038;13.692;2022-09-17T05:40:08;5.67;;;1.50;;
3757;SDS011;1894;51.038;13.692;2022-09-17T05:42:35;1.30;;;1.20;;
3757;SDS011;1894;51.038;13.692;2022-09-17T05:45:03;3.93;;;1.70;;
3757;SDS011;1894;51.038;13.692;2022-09-17T05:47:30;3.00;;;1.60;;
3757;SDS011;1894;51.038;13.692;2022-09-17T05:49:58;3.87;;;1.20;;
3757;SDS011;1894;51.038;13.692;2022-09-17T05:52:26;7.43;;;1.50;;
3757;SDS011;1894;51.038;13.692;2022-09-17T05:54:54;1.20;;;1.10;;
3757;SDS011;1894;51.038;13.692;2022-09-17T05:57:22;2.17;;;1.43;;
3757;SDS011;1894;51.038;13.692;2022-09-17T05:59:49;3.03;;;1.10;;
3757;SDS011;1894;51.038;13.692;2022-09-17T06:02:16;2.13;;;1.50;;
3757;SDS011;1894;51.038;13.692;2022-09-17T06:04:44;3.30;;;1.47;;
3757;SDS011;1894;51.038;13.692;2022-09-17T06:07:11;3.63;;;1.43;;
3757;SDS011;1894;51.038;13.692;2022-09-17T06:09:39;2.33;;;1.90;;
3757;SDS011;1894;51.038;13.692;2022-09-17T06:12:06;4.77;;;1.43;;
3757;SDS011;1894;51.038;13.692;2022-09-17T06:14:34;4.10;;;1.03;;
3757;SDS011;1894;51.038;13.692;2022-09-17T06:17:01;3.77;;;1.30;;
3757;SDS011;1894;51.038;13.692;2022-09-17T06:19:28;1.30;;;1.20;;
3757;SDS011;1894;51.038;13.692;2022-09-17T06:21:55;2.87;;;1.27;;
3757;SDS011;1894;51.038;13.692;2022-09-17T06:24:22;1.70;;;0.93;;
3757;SDS011;1894;51.038;13.692;2022-09-17T06:26:50;1.03;;;0.90;;
3757;SDS011;1894;51.038;13.692;2022-09-17T06:29:18;1.43;;;0.80;;
3757;SDS011;1894;51.038;13.692;2022-09-17T06:31:46;0.80;;;0.80;;
3757;SDS011;1894;51.038;13.692;2022-09-17T06:34:15;0.80;;;0.80;;
3757;SDS011;1894;51.038;13.692;2022-09-17T06:36:43;1.27;;;1.00;;
3757;SDS011;1894;51.038;13.692;2022-09-17T06:39:10;1.10;;;0.90;;
3757;SDS011;1894;51.038;13.692;2022-09-17T06:41:37;2.20;;;0.90;;
3757;SDS011;1894;51.038;13.692;2022-09-17T06:44:04;2.20;;;0.83;;
3757;SDS011;1894;51.038;13.692;2022-09-17T06:46:32;0.57;;;0.57;;
3757;SDS011;1894;51.038;13.692;2022-09-17T06:48:59;1.17;;;0.87;;
3757;SDS011;1894;51.038;13.692;2022-09-17T06:51:26;0.70;;;0.70;;
3757;SDS011;1894;51.038;13.692;2022-09-17T06:53:53;2.30;;;0.67;;
3757;SDS011;1894;51.038;13.692;2022-09-17T06:56:20;0.90;;;0.60;;
3757;SDS011;1894;51.038;13.692;2022-09-17T06:58:50;0.70;;;0.60;;
3757;SDS011;1894;51.038;13.692;2022-09-17T07:01:18;0.70;;;0.50;;
3757;SDS011;1894;51.038;13.692;2022-09-17T07:03:45;0.73;;;0.60;;
3757;SDS011;1894;51.038;13.692;2022-09-17T07:06:14;2.00;;;0.60;;
3757;SDS011;1894;51.038;13.692;2022-09-17T07:08:41;0.60;;;0.50;;
3757;SDS011;1894;51.038;13.692;2022-09-17T07:11:09;3.87;;;0.70;;
3757;SDS011;1894;51.038;13.692;2022-09-17T07:13:36;0.90;;;0.60;;
3757;SDS011;1894;51.038;13.692;2022-09-17T07:16:04;1.63;;;0.60;;
3757;SDS011;1894;51.038;13.692;2022-09-17T07:18:32;0.70;;;0.70;;
3757;SDS011;1894;51.038;13.692;2022-09-17T07:21:03;6.00;;;1.07;;
3757;SDS011;1894;51.038;13.692;2022-09-17T07:23:32;2.37;;;1.80;;
3757;SDS011;1894;51.038;13.692;2022-09-17T07:26:05;4.17;;;2.70;;
3757;SDS011;1894;51.038;13.692;2022-09-17T07:28:38;4.23;;;2.77;;
3757;SDS011;1894;51.038;13.692;2022-09-17T07:31:06;8.53;;;3.10;;
3757;SDS011;1894;51.038;13.692;2022-09-17T07:33:41;7.50;;;3.37;;
3757;SDS011;1894;51.038;13.692;2022-09-17T07:36:10;7.27;;;3.70;;
3757;SDS011;1894;51.038;13.692;2022-09-17T07:38:39;5.63;;;3.83;;
3757;SDS011;1894;51.038;13.692;2022-09-17T07:41:10;8.20;;;4.57;;
3757;SDS011;1894;51.038;13.692;2022-09-17T07:43:42;8.60;;;4.03;;
3757;SDS011;1894;51.038;13.692;2022-09-17T07:46:17;9.50;;;3.77;;
3757;SDS011;1894;51.038;13.692;2022-09-17T07:48:46;18.93;;;5.00;;
3757;SDS011;1894;51.038;13.692;2022-09-17T07:51:18;18.63;;;4.30;;
3757;SDS011;1894;51.038;13.692;2022-09-17T07:53:51;15.63;;;6.00;;
3757;SDS011;1894;51.038;13.692;2022-09-17T07:56:23;17.37;;;4.33;;
3757;SDS011;1894;51.038;13.692;2022-09-17T07:58:52;13.73;;;4.83;;
3757;SDS011;1894;51.038;13.692;2022-09-17T08:01:20;11.43;;;4.33;;
3757;SDS011;1894;51.038;13.692;2022-09-17T08:03:49;7.60;;;5.20;;
3757;SDS011;1894;51.038;13.692;2022-09-17T08:06:22;10.67;;;4.00;;
3757;SDS011;1894;51.038;13.692;2022-09-17T08:08:54;13.33;;;4.77;;
3757;SDS011;1894;51.038;13.692;2022-09-17T08:11:27;8.80;;;3.90;;
3757;SDS011;1894;51.038;13.692;2022-09-17T08:14:16;8.00;;;3.60;;
3757;SDS011;1894;51.038;13.692;2022-09-17T08:16:43;10.37;;;3.80;;
3757;SDS011;1894;51.038;13.692;2022-09-17T08:19:12;6.00;;;3.57;;
3757;SDS011;1894;51.038;13.692;2022-09-17T08:21:40;9.30;;;3.07;;
3757;SDS011;1894;51.038;13.692;2022-09-17T08:24:07;7.30;;;4.23;;
3757;SDS011;1894;51.038;13.692;2022-09-17T08:26:35;12.37;;;3.37;;
3757;SDS011;1894;51.038;13.692;2022-09-17T08:29:02;7.63;;;3.23;;
3757;SDS011;1894;51.038;13.692;2022-09-17T08:31:29;13.13;;;3.90;;
3757;SDS011;1894;51.038;13.692;2022-09-17T08:33:58;9.00;;;3.60;;
3757;SDS011;1894;51.038;13.692;2022-09-17T08:36:26;9.13;;;2.57;;
3757;SDS011;1894;51.038;13.692;2022-09-17T08:38:54;7.40;;;3.03;;
3757;SDS011;1894;51.038;13.692;2022-09-17T08:46:51;5.97;;;3.47;;
3757;SDS011;1894;51.038;13.692;2022-09-17T08:49:58;18.70;;;3.53;;
3757;SDS011;1894;51.038;13.692;2022-09-17T08:52:46;12.13;;;3.67;;
3757;SDS011;1894;51.038;13.692;2022-09-17T08:55:29;18.10;;;3.60;;
3757;SDS011;1894;51.038;13.692;2022-09-17T09:04:40;11.10;;;2.63;;
3757;SDS011;1894;51.038;13.692;2022-09-17T09:07:29;8.80;;;2.53;;
3757;SDS011;1894;51.038;13.692;2022-09-17T09:12:38;12.27;;;2.60;;
3757;SDS011;1894;51.038;13.692;2022-09-17T09:17:56;5.80;;;1.73;;
3757;SDS011;1894;51.038;13.692;2022-09-17T09:20:30;11.47;;;2.23;;
3757;SDS011;1894;51.038;13.692;2022-09-17T09:23:19;17.97;;;1.97;;
3757;SDS011;1894;51.038;13.692;2022-09-17T09:26:00;10.53;;;2.20;;
3757;SDS011;1894;51.038;13.692;2022-09-17T09:28:49;6.47;;;1.87;;
3757;SDS011;1894;51.038;13.692;2022-09-17T09:31:48;13.03;;;2.10;;
3757;SDS011;1894;51.038;13.692;2022-09-17T09:34:42;12.70;;;1.57;;
3757;SDS011;1894;51.038;13.692;2022-09-17T09:39:54;13.97;;;1.83;;
3757;SDS011;1894;51.038;13.692;2022-09-17T09:42:45;11.20;;;2.50;;
3757;SDS011;1894;51.038;13.692;2022-09-17T09:45:15;12.00;;;1.70;;
3757;SDS011;1894;51.038;13.692;2022-09-17T09:48:15;6.13;;;1.53;;
3757;SDS011;1894;51.038;13.692;2022-09-17T10:00:23;8.10;;;1.93;;
3757;SDS011;1894;51.038;13.692;2022-09-17T10:03:20;7.23;;;1.30;;
3757;SDS011;1894;51.038;13.692;2022-09-17T10:08:28;2.53;;;0.90;;
3757;SDS011;1894;51.038;13.692;2022-09-17T10:13:27;6.30;;;1.10;;
3757;SDS011;1894;51.038;13.692;2022-09-17T10:16:19;6.50;;;1.10;;
3757;SDS011;1894;51.038;13.692;2022-09-17T10:19:11;16.80;;;2.23;;
3757;SDS011;1894;51.038;13.692;2022-09-17T10:21:44;6.27;;;2.00;;
3757;SDS011;1894;51.038;13.692;2022-09-17T10:24:20;3.90;;;1.10;;
3757;SDS011;1894;51.038;13.692;2022-09-17T10:27:01;7.00;;;1.67;;
3757;SDS011;1894;51.038;13.692;2022-09-17T10:29:33;6.17;;;1.30;;
3757;SDS011;1894;51.038;13.692;2022-09-17T10:32:00;3.90;;;1.27;;
3757;SDS011;1894;51.038;13.692;2022-09-17T10:34:32;4.77;;;1.20;;
3757;SDS011;1894;51.038;13.692;2022-09-17T10:36:59;8.13;;;1.30;;
3757;SDS011;1894;51.038;13.692;2022-09-17T10:42:00;12.00;;;1.37;;
3757;SDS011;1894;51.038;13.692;2022-09-17T10:44:38;7.37;;;1.37;;
3757;SDS011;1894;51.038;13.692;2022-09-17T10:47:21;8.03;;;1.17;;
3757;SDS011;1894;51.038;13.692;2022-09-17T10:49:58;7.60;;;1.00;;
3757;SDS011;1894;51.038;13.692;2022-09-17T10:52:45;7.97;;;1.37;;
3757;SDS011;1894;51.038;13.692;2022-09-17T10:58:17;3.90;;;0.90;;
3757;SDS011;1894;51.038;13.692;2022-09-17T11:06:44;7.10;;;0.87;;
3757;SDS011;1894;51.038;13.692;2022-09-17T11:09:38;6.80;;;1.00;;
3757;SDS011;1894;51.038;13.692;2022-09-17T11:15:25;6.20;;;1.67;;
3757;SDS011;1894;51.038;13.692;2022-09-17T11:26:37;3.23;;;1.27;;
3757;SDS011;1894;51.038;13.692;2022-09-17T11:29:30;2.73;;;0.83;;
3757;SDS011;1894;51.038;13.692;2022-09-17T11:35:08;2.23;;;1.13;;
3757;SDS011;1894;51.038;13.692;2022-09-17T11:38:18;6.83;;;1.57;;
3757;SDS011;1894;51.038;13.692;2022-09-17T11:41:06;8.47;;;1.77;;
3757;SDS011;1894;51.038;13.692;2022-09-17T11:43:45;4.83;;;1.50;;
3757;SDS011;1894;51.038;13.692;2022-09-17T11:46:46;5.10;;;1.23;;
3757;SDS011;1894;51.038;13.692;2022-09-17T11:52:06;12.07;;;1.40;;
3757;SDS011;1894;51.038;13.692;2022-09-17T11:54:49;3.13;;;0.93;;
3757;SDS011;1894;51.038;13.692;2022-09-17T11:59:56;8.60;;;1.17;;
3757;SDS011;1894;51.038;13.692;2022-09-17T12:14:43;5.90;;;1.30;;
3757;SDS011;1894;51.038;13.692;2022-09-17T12:17:24;3.87;;;1.50;;
3757;SDS011;1894;51.038;13.692;2022-09-17T12:20:06;4.13;;;1.53;;
3757;SDS011;1894;51.038;13.692;2022-09-17T12:22:45;6.83;;;1.73;;
3757;SDS011;1894;51.038;13.692;2022-09-17T12:25:15;7.20;;;2.57;;
3757;SDS011;1894;51.038;13.692;2022-09-17T12:27:50;5.47;;;2.23;;
3757;SDS011;1894;51.038;13.692;2022-09-17T12:30:30;4.63;;;1.30;;
3757;SDS011;1894;51.038;13.692;2022-09-17T12:41:44;3.40;;;1.40;;
3757;SDS011;1894;51.038;13.692;2022-09-17T12:53:14;6.20;;;1.80;;
3757;SDS011;1894;51.038;13.692;2022-09-17T13:02:11;6.40;;;1.60;;
3757;SDS011;1894;51.038;13.692;2022-09-17T13:20:12;5.20;;;1.70;;
3757;SDS011;1894;51.038;13.692;2022-09-17T13:22:59;7.87;;;1.90;;
3757;SDS011;1894;51.038;13.692;2022-09-17T13:25:26;4.57;;;1.00;;
3757;SDS011;1894;51.038;13.692;2022-09-17T13:28:04;5.17;;;1.20;;
3757;SDS011;1894;51.038;13.692;2022-09-17T13:30:53;2.30;;;0.83;;
3757;SDS011;1894;51.038;13.692;2022-09-17T13:45:06;1.97;;;0.80;;
3757;SDS011;1894;51.038;13.692;2022-09-17T13:47:54;5.10;;;0.70;;
3757;SDS011;1894;51.038;13.692;2022-09-17T13:50:41;3.67;;;0.97;;
3757;SDS011;1894;51.038;13.692;2022-09-17T13:55:48;5.83;;;0.83;;
3757;SDS011;1894;51.038;13.692;2022-09-17T14:00:53;1.53;;;1.20;;
3757;SDS011;1894;51.038;13.692;2022-09-17T14:11:34;6.63;;;1.30;;
3757;SDS011;1894;51.038;13.692;2022-09-17T14:16:33;3.83;;;1.30;;
3757;SDS011;1894;51.038;13.692;2022-09-17T14:27:11;7.00;;;1.70;;
3757;SDS011;1894;51.038;13.692;2022-09-17T14:30:11;4.10;;;1.53;;
3757;SDS011;1894;51.038;13.692;2022-09-17T14:35:21;5.93;;;1.40;;
3757;SDS011;1894;51.038;13.692;2022-09-17T14:37:53;4.27;;;1.40;;
3757;SDS011;1894;51.038;13.692;2022-09-17T14:40:29;8.40;;;1.90;;
3757;SDS011;1894;51.038;13.692;2022-09-17T14:42:59;6.93;;;1.60;;
3757;SDS011;1894;51.038;13.692;2022-09-17T14:45:32;6.90;;;2.03;;
3757;SDS011;1894;51.038;13.692;2022-09-17T14:48:16;5.20;;;1.30;;
3757;SDS011;1894;51.038;13.692;2022-09-17T14:51:10;5.40;;;1.53;;
3757;SDS011;1894;51.038;13.692;2022-09-17T14:53:44;4.10;;;2.10;;
3757;SDS011;1894;51.038;13.692;2022-09-17T14:56:17;10.80;;;1.57;;
3757;SDS011;1894;51.038;13.692;2022-09-17T14:58:48;5.70;;;1.50;;
3757;SDS011;1894;51.038;13.692;2022-09-17T15:01:25;8.97;;;1.37;;
3757;SDS011;1894;51.038;13.692;2022-09-17T15:06:45;6.27;;;1.70;;
3757;SDS011;1894;51.038;13.692;2022-09-17T15:09:22;3.43;;;1.30;;
3757;SDS011;1894;51.038;13.692;2022-09-17T15:11:53;4.70;;;1.20;;
3757;SDS011;1894;51.038;13.692;2022-09-17T15:14:28;5.73;;;1.77;;
3757;SDS011;1894;51.038;13.692;2022-09-17T15:16:58;5.63;;;1.53;;
3757;SDS011;1894;51.038;13.692;2022-09-17T15:19:32;6.20;;;1.10;;
3757;SDS011;1894;51.038;13.692;2022-09-17T15:22:48;6.57;;;1.20;;
3757;SDS011;1894;51.038;13.692;2022-09-17T15:24:57;4.00;;;1.27;;
3757;SDS011;1894;51.038;13.692;2022-09-17T15:27:34;4.40;;;1.43;;
3757;SDS011;1894;51.038;13.692;2022-09-17T15:32:49;4.00;;;1.30;;
3757;SDS011;1894;51.038;13.692;2022-09-17T15:38:40;5.17;;;1.20;;
3757;SDS011;1894;51.038;13.692;2022-09-17T15:40:52;11.20;;;1.97;;
3757;SDS011;1894;51.038;13.692;2022-09-17T15:43:27;8.07;;;2.20;;
3757;SDS011;1894;51.038;13.692;2022-09-17T15:46:44;7.90;;;2.03;;
3757;SDS011;1894;51.038;13.692;2022-09-17T15:48:55;8.83;;;1.70;;
3757;SDS011;1894;51.038;13.692;2022-09-17T15:51:30;7.03;;;1.57;;
3757;SDS011;1894;51.038;13.692;2022-09-17T15:54:03;4.10;;;1.30;;
3757;SDS011;1894;51.038;13.692;2022-09-17T15:56:38;5.43;;;1.13;;
3757;SDS011;1894;51.038;13.692;2022-09-17T15:59:20;5.27;;;1.10;;
3757;SDS011;1894;51.038;13.692;2022-09-17T16:01:55;6.77;;;1.10;;
3757;SDS011;1894;51.038;13.692;2022-09-17T16:04:32;3.70;;;1.27;;
3757;SDS011;1894;51.038;13.692;2022-09-17T16:09:38;4.33;;;1.27;;
3757;SDS011;1894;51.038;13.692;2022-09-17T16:12:06;2.77;;;1.30;;
3757;SDS011;1894;51.038;13.692;2022-09-17T16:14:34;11.73;;;1.50;;
3757;SDS011;1894;51.038;13.692;2022-09-17T16:17:07;4.23;;;1.50;;
3757;SDS011;1894;51.038;13.692;2022-09-17T16:19:45;7.60;;;2.43;;
3757;SDS011;1894;51.038;13.692;2022-09-17T16:22:12;9.37;;;1.70;;
3757;SDS011;1894;51.038;13.692;2022-09-17T16:24:39;10.67;;;1.87;;
3757;SDS011;1894;51.038;13.692;2022-09-17T16:27:09;6.50;;;2.03;;
3757;SDS011;1894;51.038;13.692;2022-09-17T16:29:47;8.77;;;3.07;;
3757;SDS011;1894;51.038;13.692;2022-09-17T16:32:16;4.03;;;1.73;;
3757;SDS011;1894;51.038;13.692;2022-09-17T16:34:44;7.77;;;1.83;;
3757;SDS011;1894;51.038;13.692;2022-09-17T16:37:11;5.83;;;1.40;;
3757;SDS011;1894;51.038;13.692;2022-09-17T16:39:38;4.87;;;1.20;;
3757;SDS011;1894;51.038;13.692;2022-09-17T16:42:06;5.03;;;1.33;;
3757;SDS011;1894;51.038;13.692;2022-09-17T16:44:33;12.70;;;1.87;;
3757;SDS011;1894;51.038;13.692;2022-09-17T16:47:00;5.90;;;1.30;;
3757;SDS011;1894;51.038;13.692;2022-09-17T16:49:28;12.97;;;2.33;;
3757;SDS011;1894;51.038;13.692;2022-09-17T16:51:55;7.13;;;1.30;;
3757;SDS011;1894;51.038;13.692;2022-09-17T16:54:22;12.10;;;1.97;;
3757;SDS011;1894;51.038;13.692;2022-09-17T16:56:49;6.63;;;1.63;;
3757;SDS011;1894;51.038;13.692;2022-09-17T16:59:17;2.33;;;1.20;;
3757;SDS011;1894;51.038;13.692;2022-09-17T17:01:44;5.37;;;1.30;;
3757;SDS011;1894;51.038;13.692;2022-09-17T17:04:16;8.73;;;1.93;;
3757;SDS011;1894;51.038;13.692;2022-09-17T17:06:43;9.20;;;1.30;;
3757;SDS011;1894;51.038;13.692;2022-09-17T17:09:10;7.90;;;1.30;;
3757;SDS011;1894;51.038;13.692;2022-09-17T17:11:38;4.23;;;1.30;;
3757;SDS011;1894;51.038;13.692;2022-09-17T17:14:05;7.13;;;2.83;;
3757;SDS011;1894;51.038;13.692;2022-09-17T17:16:38;5.20;;;1.53;;
3757;SDS011;1894;51.038;13.692;2022-09-17T17:19:06;6.93;;;1.63;;
3757;SDS011;1894;51.038;13.692;2022-09-17T17:21:34;5.13;;;1.40;;
3757;SDS011;1894;51.038;13.692;2022-09-17T17:24:01;8.47;;;1.83;;
3757;SDS011;1894;51.038;13.692;2022-09-17T17:26:29;7.07;;;1.20;;
3757;SDS011;1894;51.038;13.692;2022-09-17T17:28:56;4.77;;;1.33;;
3757;SDS011;1894;51.038;13.692;2022-09-17T17:31:24;4.47;;;1.33;;
3757;SDS011;1894;51.038;13.692;2022-09-17T17:33:51;5.13;;;1.30;;
3757;SDS011;1894;51.038;13.692;2022-09-17T17:36:18;5.80;;;1.47;;
3757;SDS011;1894;51.038;13.692;2022-09-17T17:38:45;1.17;;;0.70;;
3757;SDS011;1894;51.038;13.692;2022-09-17T17:41:13;7.53;;;1.20;;
3757;SDS011;1894;51.038;13.692;2022-09-17T17:43:43;4.57;;;1.10;;
3757;SDS011;1894;51.038;13.692;2022-09-17T17:46:10;5.90;;;1.10;;
3757;SDS011;1894;51.038;13.692;2022-09-17T17:48:38;2.33;;;1.17;;
3757;SDS011;1894;51.038;13.692;2022-09-17T17:51:07;7.17;;;1.47;;
3757;SDS011;1894;51.038;13.692;2022-09-17T17:53:36;6.77;;;1.57;;
3757;SDS011;1894;51.038;13.692;2022-09-17T17:56:06;8.03;;;0.97;;
3757;SDS011;1894;51.038;13.692;2022-09-17T17:58:35;3.50;;;1.03;;
3757;SDS011;1894;51.038;13.692;2022-09-17T18:01:13;2.47;;;0.70;;
3757;SDS011;1894;51.038;13.692;2022-09-17T18:03:45;2.20;;;0.83;;
3757;SDS011;1894;51.038;13.692;2022-09-17T18:06:13;4.63;;;0.90;;
3757;SDS011;1894;51.038;13.692;2022-09-17T18:08:42;4.83;;;1.20;;
3757;SDS011;1894;51.038;13.692;2022-09-17T18:11:10;3.63;;;1.13;;
3757;SDS011;1894;51.038;13.692;2022-09-17T18:13:38;1.47;;;0.77;;
3757;SDS011;1894;51.038;13.692;2022-09-17T18:16:05;1.43;;;0.80;;
3757;SDS011;1894;51.038;13.692;2022-09-17T18:18:38;3.13;;;1.47;;
3757;SDS011;1894;51.038;13.692;2022-09-17T18:21:11;3.23;;;0.70;;
3757;SDS011;1894;51.038;13.692;2022-09-17T18:23:43;1.00;;;0.67;;
3757;SDS011;1894;51.038;13.692;2022-09-17T18:26:13;5.50;;;0.90;;
3757;SDS011;1894;51.038;13.692;2022-09-17T18:28:43;4.70;;;1.20;;
3757;SDS011;1894;51.038;13.692;2022-09-17T18:34:10;1.93;;;0.77;;
3757;SDS011;1894;51.038;13.692;2022-09-17T18:36:39;2.40;;;0.90;;
3757;SDS011;1894;51.038;13.692;2022-09-17T18:39:14;1.40;;;0.70;;
3757;SDS011;1894;51.038;13.692;2022-09-17T18:42:02;2.67;;;1.07;;
3757;SDS011;1894;51.038;13.692;2022-09-17T18:44:29;4.03;;;0.80;;
3757;SDS011;1894;51.038;13.692;2022-09-17T18:46:56;0.77;;;0.70;;
3757;SDS011;1894;51.038;13.692;2022-09-17T18:49:24;1.77;;;1.33;;
3757;SDS011;1894;51.038;13.692;2022-09-17T18:51:51;2.03;;;0.93;;
3757;SDS011;1894;51.038;13.692;2022-09-17T18:54:19;3.33;;;0.87;;
3757;SDS011;1894;51.038;13.692;2022-09-17T18:56:46;7.40;;;1.43;;
3757;SDS011;1894;51.038;13.692;2022-09-17T18:59:13;4.93;;;0.80;;
3757;SDS011;1894;51.038;13.692;2022-09-17T19:01:41;1.30;;;0.70;;
3757;SDS011;1894;51.038;13.692;2022-09-17T19:04:08;7.20;;;1.43;;
3757;SDS011;1894;51.038;13.692;2022-09-17T19:06:36;5.40;;;1.07;;
3757;SDS011;1894;51.038;13.692;2022-09-17T19:09:05;4.20;;;1.23;;